Terminal Aerodrome Forecast
Issued by NWS

Home | Current Version | Previous Version | Graphics & Text | Print | Product List | Glossary On
Versions: 1 2 3 4 5 6 7 8 9 10 11 12 13
405
FTUS43 KGRB 232329
TAFAUW
TAF
KAUW 232329Z 2400/2424 20010G18KT P6SM BKN250
     FM240200 19007KT P6SM SCT100 BKN250
     FM241000 19005KT P6SM VCSH SCT025 BKN080
      TEMPO 2411/2415 3SM TSRA BKN025CB
     FM241500 24008G15KT P6SM SCT035 BKN060=

USA.gov is the U.S. government's official web portal to all federal, state and local government web resources and services.